Latest Weather Observations for Cape Naturaliste

IDW60801

Issued at 2:32 pm WST Tuesday 21 April 2015 (issued every 30 minutes, with the page automatically refreshed every 10 minutes)

About weather observations | Map of weather stations | Latest weather observations for WA | Other Formats
Station Details ID: 009519 Name: CAPE NATURALISTE Lat: -33.54 Lon: 115.02 Height: 109.0 m
Data from the previous 72 hours. | See also: Recent months at Cape Naturaliste
Date/Time
WST
Temp
°C
App
Temp
°C
Dew
Point
Rel
Hum
%
Delta-T
°C
Wind Press
QNH
hPa
Press
MSL
hPa
Rain
since 9 am
mm
Dir
 
Spd
km/h
Gust
km/h
Spd
kts
Gust
kts
21/02:30pm 22.7 22.0 12.0 50 6.0 NNE 7 9 4 5 1020.5 1020.2 0.0
21/02:00pm 23.0 22.1 12.6 52 6.0 NNE 9 13 5 7 1020.5 1020.2 0.0
21/01:30pm 22.6 21.3 12.5 53 5.8 NE 11 15 6 8 1020.6 1020.3 0.0
21/01:00pm 23.0 21.6 12.3 51 6.1 NE 11 15 6 8 1020.9 1020.6 0.0
21/12:30pm 22.8 21.4 12.1 51 6.1 ENE 11 15 6 8 1021.4 1021.1 0.0
21/12:00pm 22.7 21.4 12.6 53 5.8 NE 11 17 6 9 1021.9 1021.7 0.0
21/11:30am 22.2 20.5 12.5 54 5.5 ENE 13 19 7 10 1022.3 1022.1 0.0
21/11:00am 22.1 20.6 13.2 57 5.1 E 13 19 7 10 1022.5 1022.3 0.0
21/10:30am 21.7 19.3 13.9 61 4.5 E 19 24 10 13 1022.7 1022.5 0.0
21/10:00am 21.4 19.0 13.8 62 4.4 E 19 24 10 13 1022.7 1022.5 0.0
21/09:30am 20.7 18.2 13.6 64 4.1 E 19 22 10 12 1022.8 1022.6 0.0
21/09:00am 20.3 18.3 14.0 67 3.6 E 17 22 9 12 1023.0 1022.8 0.0
21/08:30am 18.8 16.6 13.2 70 3.2 ESE 17 22 9 12 1023.0 1022.8 0.0
21/08:00am 17.2 14.8 12.5 74 2.6 ESE 17 20 9 11 1022.8 1022.6 0.0
21/07:30am 16.1 13.5 12.1 77 2.2 ESE 17 20 9 11 1022.6 1022.4 0.0
21/07:00am 15.5 12.5 11.9 79 2.0 ESE 19 20 10 11 1022.4 1022.2 0.0
21/06:30am 15.5 12.8 11.7 78 2.1 SE 17 20 9 11 1022.2 1022.0 0.0
21/06:00am 16.2 13.7 12.4 78 2.1 ESE 17 20 9 11 1022.4 1022.2 0.0
21/05:30am 16.1 13.5 12.1 77 2.2 SE 17 20 9 11 1022.4 1022.2 0.0
21/05:00am 16.0 13.3 11.8 76 2.3 SE 17 19 9 10 1022.2 1022.0 0.0
21/04:30am 16.2 14.3 11.8 75 2.4 ESE 13 17 7 9 1021.9 1021.7 0.0
21/04:00am 16.0 13.7 11.6 75 2.4 ESE 15 17 8 9 1021.6 1021.3 0.0
21/03:30am 15.9 13.5 11.3 74 2.5 ESE 15 19 8 10 1021.6 1021.3 0.0
21/03:00am 15.8 13.0 11.4 75 2.4 SE 17 20 9 11 1021.8 1021.5 0.0
21/02:30am 15.9 12.7 11.1 73 2.6 SE 19 20 10 11 1021.8 1021.5 0.0
21/02:00am 16.1 13.2 11.1 72 2.7 SE 17 20 9 11 1022.1 1021.9 0.0
21/01:30am 16.2 13.3 10.9 71 2.8 SE 17 19 9 10 1022.1 1021.9 0.0
21/01:00am 16.8 13.9 11.1 69 3.1 SE 17 20 9 11 1022.2 1022.0 0.0
21/12:30am 17.3 14.3 10.7 65 3.6 SE 17 20 9 11 1022.2 1022.0 0.0
21/12:00am 17.4 14.4 10.5 64 3.7 SSE 17 20 9 11 1022.2 1022.0 0.0
 
Date/Time
WST
Temp
°C
App
Temp
°C
Dew
Point
Rel
Hum
%
Delta-T
°C
Wind Press
QNH
hPa
Press
MSL
hPa
Rain
since 9 am
mm
Dir
 
Spd
km/h
Gust
km/h
Spd
kts
Gust
kts
20/11:30pm 17.2 14.5 10.3 64 3.7 SSE 15 19 8 10 1022.4 1022.2 0.0
20/11:00pm 17.4 14.6 10.1 62 3.9 SSE 15 17 8 9 1022.8 1022.6 0.0
20/10:30pm 17.6 14.9 10.5 63 3.8 SSE 15 17 8 9 1023.0 1022.8 0.0
20/10:00pm 17.6 14.7 10.9 65 3.6 SSE 17 20 9 11 1023.3 1023.1 0.0
20/09:30pm 17.7 14.1 9.8 60 4.2 SE 19 20 10 11 1023.4 1023.2 0.0
20/09:00pm 19.0 17.4 6.5 44 6.2 S 4 19 2 10 1023.5 1023.3 0.0
20/08:30pm 20.0 18.2 8.0 46 6.2 SSW 7 9 4 5 1023.4 1023.2 0.0
20/08:00pm 18.9 17.7 10.2 57 4.7 SW 7 9 4 5 1023.5 1023.3 0.0
20/07:30pm 18.7 17.7 11.0 61 4.2 SW 7 9 4 5 1023.4 1023.2 0.0
20/07:00pm 19.2 17.8 9.7 54 5.0 SW 7 7 4 4 1023.3 1023.1 0.0
20/06:30pm 18.7 17.5 10.3 58 4.5 W 7 9 4 5 1023.1 1022.9 0.0
20/06:00pm 19.7 18.5 9.6 52 5.4 N 6 7 3 4 1022.9 1022.7 0.0
20/05:30pm 20.6 19.3 9.8 50 5.8 N 7 7 4 4 1022.9 1022.7 0.0
20/05:00pm 21.8 20.5 10.0 47 6.4 N 7 7 4 4 1022.9 1022.7 0.0
20/04:30pm 22.1 20.6 10.6 48 6.3 NE 9 11 5 6 1022.9 1022.7 0.0
20/04:00pm 22.5 20.6 10.6 47 6.6 NE 11 13 6 7 1023.1 1022.9 0.0
20/03:30pm 22.4 20.3 11.2 49 6.3 NE 13 17 7 9 1023.1 1022.9 0.0
20/03:00pm 22.4 20.2 12.1 52 5.8 NE 15 19 8 10 1023.2 1023.0 0.0
20/02:30pm 22.2 20.3 11.9 52 5.8 ENE 13 17 7 9 1023.3 1023.1 0.0
20/02:00pm 22.3 20.3 12.8 55 5.4 ENE 15 20 8 11 1023.5 1023.3 0.0
20/01:30pm 22.7 20.5 13.2 55 5.5 NE 17 20 9 11 1023.9 1023.7 0.0
20/01:00pm 22.6 20.5 13.7 57 5.2 NE 17 20 9 11 1024.3 1024.1 0.0
20/12:30pm 22.4 19.9 13.5 57 5.2 NE 19 22 10 12 1024.7 1024.5 0.0
20/12:00pm 22.6 20.1 13.4 56 5.3 NE 19 24 10 13 1025.2 1025.0 0.0
20/11:30am 22.1 19.7 13.7 59 4.9 NE 19 24 10 13 1025.6 1025.4 0.0
20/11:00am 22.1 19.3 13.2 57 5.1 NE 20 28 11 15 1025.7 1025.5 0.0
20/10:30am 21.7 18.8 13.9 61 4.5 NE 22 30 12 16 1025.9 1025.7 0.0
20/10:00am 21.2 18.5 13.6 62 4.4 NE 20 30 11 16 1026.1 1025.9 0.0
20/09:30am 20.6 17.1 13.3 63 4.2 ENE 24 30 13 16 1026.2 1026.0 0.0
20/09:00am 20.1 16.6 13.3 65 3.9 ENE 24 30 13 16 1026.2 1026.0 0.0
20/08:30am 19.6 16.4 13.1 66 3.7 ENE 22 28 12 15 1026.2 1026.0 0.0
20/08:00am 19.0 15.0 13.0 68 3.4 ENE 26 30 14 16 1025.8 1025.6 0.0
20/07:30am 18.1 14.5 13.0 72 2.9 ENE 24 28 13 15 1025.4 1025.2 0.0
20/07:00am 16.7 13.1 13.0 79 2.1 ENE 24 28 13 15 1025.2 1025.0 0.0
20/06:30am 15.1 11.5 11.7 80 1.8 E 22 28 12 15 1025.3 1025.1 0.0
20/06:00am 14.8 11.0 11.2 79 1.9 ESE 22 26 12 14 1025.2 1025.0 0.0
20/05:30am 15.0 10.8 11.2 78 2.0 E 24 28 13 15 1025.2 1025.0 0.0
20/05:00am 15.1 11.3 11.1 77 2.1 ESE 22 26 12 14 1025.1 1024.9 0.0
20/04:30am 16.2 12.3 12.0 76 2.3 E 24 28 13 15 1025.1 1024.9 0.0
20/04:00am 15.9 12.3 11.9 77 2.2 E 22 26 12 14 1025.2 1025.0 0.0
20/03:30am 16.6 13.6 12.6 77 2.2 E 20 24 11 13 1025.2 1025.0 0.0
20/03:00am 16.6 13.6 12.4 76 2.3 E 20 24 11 13 1025.2 1025.0 0.0
20/02:30am 17.3 14.4 13.0 76 2.4 E 20 24 11 13 1025.5 1025.3 0.0
20/02:00am 18.0 15.1 12.9 72 2.9 E 20 26 11 14 1025.7 1025.5 0.0
20/01:30am 18.4 15.3 13.5 73 2.8 ENE 22 26 12 14 1025.7 1025.5 0.0
20/01:00am 18.2 14.5 12.6 70 3.1 E 24 28 13 15 1025.5 1025.3 0.0
20/12:30am 18.5 14.7 12.3 67 3.5 E 24 33 13 18 1025.5 1025.3 0.0
20/12:00am 18.1 14.0 11.4 65 3.7 E 24 28 13 15 1025.5 1025.3 0.0
 
Date/Time
WST
Temp
°C
App
Temp
°C
Dew
Point
Rel
Hum
%
Delta-T
°C
Wind Press
QNH
hPa
Press
MSL
hPa
Rain
since 9 am
mm
Dir
 
Spd
km/h
Gust
km/h
Spd
kts
Gust
kts
19/11:30pm 18.0 14.0 10.4 61 4.1 E 22 26 12 14 1025.6 1025.4 0.0
19/11:00pm 18.7 14.1 9.5 55 4.9 E 24 30 13 16 1025.9 1025.7 0.0
19/10:30pm 18.3 14.3 9.1 55 4.8 ESE 20 26 11 14 1026.1 1025.9 0.0
19/10:00pm 18.4 14.5 8.7 53 5.0 SE 19 22 10 12 1026.3 1026.1 0.0
19/09:30pm 18.5 14.6 7.0 47 5.8 SE 17 20 9 11 1026.3 1026.1 0.0
19/09:00pm 18.7 14.8 6.9 46 5.9 SE 17 20 9 11 1026.1 1025.9 0.0
19/08:30pm 18.5 14.6 7.3 48 5.7 SE 17 20 9 11 1026.0 1025.8 0.0
19/08:00pm 18.2 15.3 6.7 47 5.7 SSE 11 13 6 7 1025.9 1025.7 0.0
19/07:30pm 18.6 15.6 5.8 43 6.3 SE 11 11 6 6 1025.8 1025.6 0.0
19/07:00pm 20.3 17.9 4.4 35 7.7 ENE 6 9 3 5 1025.7 1025.5 0.0
19/06:30pm 20.5 19.5 5.7 38 7.4 CALM 0 0 0 0 1025.4 1025.2 0.0
19/06:00pm 20.9 20.7 8.9 46 6.3 CALM 0 0 0 0 1025.2 1025.0 0.0
19/05:30pm 21.1 21.2 10.3 50 5.9 CALM 0 0 0 0 1025.0 1024.8 0.0
19/05:00pm 22.3 22.2 10.8 48 6.3 NE 2 6 1 3 1024.9 1024.7 0.0
19/04:30pm 22.6 21.2 11.0 48 6.5 ENE 9 11 5 6 1025.0 1024.8 0.0
19/04:00pm 22.6 21.3 12.5 53 5.7 ENE 11 13 6 7 1025.2 1025.0 0.0
19/03:30pm 22.2 20.5 12.5 54 5.5 ENE 13 17 7 9 1025.1 1024.9 0.0
19/03:00pm 22.2 20.2 12.7 55 5.4 ENE 15 19 8 10 1025.0 1024.8 0.0
19/02:30pm 22.8 20.8 13.8 57 5.3 ENE 17 20 9 11 1025.0 1024.8 0.0
19/02:00pm 22.5 20.4 13.6 57 5.2 ENE 17 20 9 11 1025.0 1024.8 0.0
19/01:30pm 22.5 19.9 13.3 56 5.3 NE 19 26 10 14 1025.2 1025.0 0.0
19/01:00pm 22.3 19.1 13.1 56 5.3 NE 22 26 12 14 1025.5 1025.3 0.0
19/12:30pm 22.2 19.1 13.3 57 5.1 NE 22 28 12 15 1025.8 1025.6 0.0
19/12:00pm 21.6 18.2 13.8 61 4.5 NE 24 30 13 16 1026.3 1026.1 0.0
19/11:30am 21.2 17.4 13.6 62 4.4 ENE 26 32 14 17 1026.6 1026.4 0.0
19/11:00am 21.0 17.3 13.9 64 4.1 ENE 26 32 14 17 1026.7 1026.5 0.0
19/10:30am 20.0 15.8 13.5 66 3.7 ENE 28 35 15 19 1026.7 1026.5 0.0
19/10:00am 19.7 15.6 13.9 69 3.3 ENE 28 37 15 20 1026.8 1026.6 0.0
19/09:30am 19.1 14.9 13.5 70 3.2 E 28 37 15 20 1026.9 1026.7 0.0
19/09:00am 18.5 13.9 13.4 72 2.9 E 30 37 16 20 1026.8 1026.6 0.0
19/08:30am 17.8 13.1 13.3 75 2.5 E 30 39 16 21 1026.6 1026.4 0.0
19/08:00am 17.1 12.4 13.2 78 2.2 E 30 39 16 21 1026.2 1026.0 0.0
19/07:30am 16.2 11.0 12.9 81 1.8 E 32 37 17 20 1025.9 1025.7 0.0
19/07:00am 15.4 10.1 12.5 83 1.6 E 32 39 17 21 1025.6 1025.4 0.0
19/06:30am 15.3 10.0 12.4 83 1.6 E 32 41 17 22 1025.4 1025.2 0.0
19/06:00am 15.2 9.8 12.1 82 1.7 E 32 41 17 22 1025.1 1024.9 0.0
19/05:30am 15.3 9.9 12.2 82 1.7 E 32 41 17 22 1024.9 1024.7 0.0
19/05:00am 15.3 9.9 12.2 82 1.7 E 32 39 17 21 1024.8 1024.6 0.0
19/04:30am 15.4 10.0 12.3 82 1.7 E 32 39 17 21 1024.7 1024.5 0.0
19/04:00am 15.4 10.0 12.3 82 1.7 E 32 43 17 23 1024.6 1024.4 0.0
19/03:30am 15.5 10.2 12.4 82 1.7 E 32 41 17 22 1024.6 1024.4 0.0
19/03:00am 15.7 10.4 12.6 82 1.7 E 32 41 17 22 1024.7 1024.5 0.0
19/02:30am 15.8 10.9 12.7 82 1.7 E 30 39 16 21 1024.8 1024.6 0.0
19/02:00am 16.1 11.3 13.0 82 1.7 E 30 37 16 20 1024.9 1024.7 0.0
19/01:30am 16.1 10.9 12.8 81 1.8 E 32 41 17 22 1025.0 1024.8 0.0
19/01:00am 16.3 11.1 12.8 80 1.9 E 32 39 17 21 1024.9 1024.7 0.0
19/12:30am 16.3 11.1 12.7 79 2.0 E 32 41 17 22 1024.9 1024.7 0.0
19/12:00am 16.5 11.1 12.7 78 2.1 E 33 43 18 23 1024.8 1024.6 0.0
 
Date/Time
WST
Temp
°C
App
Temp
°C
Dew
Point
Rel
Hum
%
Delta-T
°C
Wind Press
QNH
hPa
Press
MSL
hPa
Rain
since 9 am
mm
Dir
 
Spd
km/h
Gust
km/h
Spd
kts
Gust
kts
18/11:30pm 16.8 11.4 12.9 78 2.2 E 33 43 18 23 1025.0 1024.8 0.0
18/11:00pm 17.0 11.6 12.7 76 2.4 E 33 44 18 24 1025.0 1024.8 0.0
18/10:30pm 17.4 11.7 12.9 75 2.5 E 35 43 19 23 1025.1 1024.9 0.0
18/10:00pm 17.5 12.2 13.2 76 2.4 E 33 44 18 24 1025.1 1024.9 0.0
18/09:30pm 16.8 12.3 12.7 77 2.3 ESE 28 35 15 19 1025.1 1024.9 0.0
18/09:00pm 16.9 12.5 11.8 72 2.8 ESE 26 35 14 19 1025.0 1024.8 0.0
18/08:30pm 17.1 13.0 11.6 70 3.0 ESE 24 35 13 19 1024.8 1024.6 0.0
18/08:00pm 17.7 13.7 11.9 69 3.2 ESE 24 33 13 18 1024.6 1024.4 0.0
18/07:30pm 17.4 14.1 11.7 69 3.1 ESE 20 26 11 14 1024.4 1024.2 0.0
18/07:00pm 17.9 15.3 11.9 68 3.3 ESE 17 22 9 12 1024.2 1024.0 0.0
18/06:30pm 18.3 15.7 12.1 67 3.4 ESE 17 20 9 11 1023.9 1023.7 0.0
18/06:00pm 18.4 16.2 10.7 61 4.2 SE 13 17 7 9 1023.7 1023.5 0.0
18/05:30pm 19.7 17.0 10.4 55 5.0 ESE 15 19 8 10 1023.5 1023.3 0.0
18/05:00pm 21.0 18.7 10.5 51 5.7 SE 13 20 7 11 1023.5 1023.3 0.0
18/04:30pm 21.8 18.8 10.6 49 6.2 ESE 17 24 9 13 1023.4 1023.2 0.0
18/04:00pm 22.3 20.0 11.7 51 5.9 ESE 15 20 8 11 1023.5 1023.3 0.0
18/03:30pm 22.4 19.7 11.8 51 6.0 E 17 20 9 11 1023.5 1023.3 0.0
18/03:00pm 22.2 19.4 11.3 50 6.1 E 17 20 9 11 1023.5 1023.3 0.0

Other Formats:

Comma delimited format used in spreadsheet applications
http://www.bom.gov.au/fwo/IDW60801/IDW60801.94600.axf

JavaScript Object Notation format (JSON) in row-major order
http://www.bom.gov.au/fwo/IDW60801/IDW60801.94600.json